sensor_id;sensor_type;location;lat;lon;timestamp;pressure;altitude;pressure_sealevel;temperature;humidity
77631;BME280;66798;47.370;8.552;2023-04-28T00:01:26;96534.75;;;12.60;68.08
77631;BME280;66798;47.370;8.552;2023-04-28T00:03:51;96538.06;;;12.70;67.62
77631;BME280;66798;47.370;8.552;2023-04-28T00:06:17;96532.03;;;12.65;68.08
77631;BME280;66798;47.370;8.552;2023-04-28T00:08:42;96532.34;;;12.63;68.00
77631;BME280;66798;47.370;8.552;2023-04-28T00:11:11;96521.72;;;12.68;67.62
77631;BME280;66798;47.370;8.552;2023-04-28T00:13:37;96525.59;;;12.76;67.61
77631;BME280;66798;47.370;8.552;2023-04-28T00:16:02;96526.31;;;12.82;66.99
77631;BME280;66798;47.370;8.552;2023-04-28T00:18:28;96532.81;;;12.89;66.82
77631;BME280;66798;47.370;8.552;2023-04-28T00:20:54;96533.94;;;12.83;66.92
77631;BME280;66798;47.370;8.552;2023-04-28T00:23:20;96528.69;;;12.83;67.44
77631;BME280;66798;47.370;8.552;2023-04-28T00:25:53;96523.91;;;12.85;66.65
77631;BME280;66798;47.370;8.552;2023-04-28T00:28:19;96519.59;;;12.89;66.64
77631;BME280;66798;47.370;8.552;2023-04-28T00:30:45;96520.81;;;12.78;67.10
77631;BME280;66798;47.370;8.552;2023-04-28T00:33:11;96520.38;;;12.71;67.22
77631;BME280;66798;47.370;8.552;2023-04-28T00:35:37;96517.34;;;12.83;67.09
77631;BME280;66798;47.370;8.552;2023-04-28T00:38:03;96516.19;;;12.89;66.50
77631;BME280;66798;47.370;8.552;2023-04-28T00:40:38;96514.06;;;12.91;66.62
77631;BME280;66798;47.370;8.552;2023-04-28T00:43:04;96517.03;;;12.84;66.85
77631;BME280;66798;47.370;8.552;2023-04-28T00:45:30;96508.97;;;12.75;66.97
77631;BME280;66798;47.370;8.552;2023-04-28T00:47:57;96512.16;;;12.72;66.69
77631;BME280;66798;47.370;8.552;2023-04-28T00:50:24;96508.16;;;12.75;67.15
77631;BME280;66798;47.370;8.552;2023-04-28T00:52:51;96510.59;;;12.71;67.49
77631;BME280;66798;47.370;8.552;2023-04-28T00:55:18;96510.81;;;12.75;67.72
77631;BME280;66798;47.370;8.552;2023-04-28T00:57:44;96511.81;;;12.79;66.55
77631;BME280;66798;47.370;8.552;2023-04-28T01:00:10;96504.97;;;12.78;66.52
77631;BME280;66798;47.370;8.552;2023-04-28T01:02:36;96507.44;;;12.69;67.06
77631;BME280;66798;47.370;8.552;2023-04-28T01:05:02;96512.00;;;12.64;67.47
77631;BME280;66798;47.370;8.552;2023-04-28T01:07:28;96508.22;;;12.70;67.21
77631;BME280;66798;47.370;8.552;2023-04-28T01:09:54;96508.03;;;12.66;67.44
77631;BME280;66798;47.370;8.552;2023-04-28T01:12:20;96510.59;;;12.71;67.53
77631;BME280;66798;47.370;8.552;2023-04-28T01:14:46;96511.69;;;12.70;67.40
77631;BME280;66798;47.370;8.552;2023-04-28T01:17:12;96514.97;;;12.81;67.00
77631;BME280;66798;47.370;8.552;2023-04-28T01:19:38;96505.09;;;12.92;66.68
77631;BME280;66798;47.370;8.552;2023-04-28T01:22:03;96520.75;;;12.83;66.54
77631;BME280;66798;47.370;8.552;2023-04-28T01:24:29;96534.13;;;12.92;66.63
77631;BME280;66798;47.370;8.552;2023-04-28T01:26:55;96543.88;;;12.91;67.12
77631;BME280;66798;47.370;8.552;2023-04-28T01:29:20;96545.53;;;12.87;69.27
77631;BME280;66798;47.370;8.552;2023-04-28T01:31:46;96537.59;;;12.87;71.17
77631;BME280;66798;47.370;8.552;2023-04-28T01:34:11;96530.41;;;12.45;74.13
77631;BME280;66798;47.370;8.552;2023-04-28T01:36:37;96520.16;;;12.14;74.15
77631;BME280;66798;47.370;8.552;2023-04-28T01:39:03;96526.03;;;12.06;75.07
77631;BME280;66798;47.370;8.552;2023-04-28T01:41:29;96523.13;;;12.07;74.53
77631;BME280;66798;47.370;8.552;2023-04-28T01:43:54;96526.69;;;11.93;76.83
77631;BME280;66798;47.370;8.552;2023-04-28T01:46:20;96522.72;;;11.95;75.12
77631;BME280;66798;47.370;8.552;2023-04-28T01:48:45;96513.78;;;11.86;77.18
77631;BME280;66798;47.370;8.552;2023-04-28T01:51:11;96502.22;;;11.87;76.75
77631;BME280;66798;47.370;8.552;2023-04-28T01:53:37;96488.50;;;11.85;76.92
77631;BME280;66798;47.370;8.552;2023-04-28T01:56:02;96479.81;;;11.89;76.83
77631;BME280;66798;47.370;8.552;2023-04-28T01:58:28;96493.47;;;11.92;79.04
77631;BME280;66798;47.370;8.552;2023-04-28T02:00:53;96496.63;;;11.94;78.92
77631;BME280;66798;47.370;8.552;2023-04-28T02:03:19;96502.19;;;11.92;79.27
77631;BME280;66798;47.370;8.552;2023-04-28T02:05:44;96504.88;;;11.87;79.50
77631;BME280;66798;47.370;8.552;2023-04-28T02:08:10;96510.88;;;11.93;78.95
77631;BME280;66798;47.370;8.552;2023-04-28T02:10:36;96515.38;;;11.92;79.11
77631;BME280;66798;47.370;8.552;2023-04-28T02:13:01;96510.59;;;11.94;78.64
77631;BME280;66798;47.370;8.552;2023-04-28T02:15:26;96504.31;;;11.90;77.05
77631;BME280;66798;47.370;8.552;2023-04-28T02:17:52;96484.81;;;11.86;79.11
77631;BME280;66798;47.370;8.552;2023-04-28T02:20:17;96484.81;;;11.86;79.56
77631;BME280;66798;47.370;8.552;2023-04-28T02:22:43;96481.59;;;11.94;80.45
77631;BME280;66798;47.370;8.552;2023-04-28T02:25:08;96491.91;;;11.90;79.84
77631;BME280;66798;47.370;8.552;2023-04-28T02:27:34;96501.72;;;11.80;80.07
77631;BME280;66798;47.370;8.552;2023-04-28T02:30:02;96503.38;;;11.71;80.30
77631;BME280;66798;47.370;8.552;2023-04-28T02:32:28;96510.72;;;11.74;80.61
77631;BME280;66798;47.370;8.552;2023-04-28T02:34:54;96507.78;;;11.80;80.03
77631;BME280;66798;47.370;8.552;2023-04-28T02:37:19;96504.69;;;11.73;79.66
77631;BME280;66798;47.370;8.552;2023-04-28T02:39:45;96499.13;;;11.75;79.00
77631;BME280;66798;47.370;8.552;2023-04-28T02:42:11;96514.34;;;11.88;78.33
77631;BME280;66798;47.370;8.552;2023-04-28T02:44:36;96524.03;;;11.93;78.76
77631;BME280;66798;47.370;8.552;2023-04-28T02:47:02;96516.69;;;11.89;79.33
77631;BME280;66798;47.370;8.552;2023-04-28T02:49:27;96515.97;;;11.79;79.47
77631;BME280;66798;47.370;8.552;2023-04-28T02:51:53;96538.81;;;11.54;82.03
77631;BME280;66798;47.370;8.552;2023-04-28T02:54:18;96530.38;;;11.52;82.34
77631;BME280;66798;47.370;8.552;2023-04-28T02:56:55;96533.56;;;11.49;83.49
77631;BME280;66798;47.370;8.552;2023-04-28T02:59:22;96530.13;;;11.54;84.41
77631;BME280;66798;47.370;8.552;2023-04-28T03:01:47;96531.19;;;11.47;84.20
77631;BME280;66798;47.370;8.552;2023-04-28T03:04:14;96530.22;;;11.33;85.85
77631;BME280;66798;47.370;8.552;2023-04-28T03:06:40;96533.91;;;11.37;85.51
77631;BME280;66798;47.370;8.552;2023-04-28T03:09:06;96523.94;;;11.29;86.90
77631;BME280;66798;47.370;8.552;2023-04-28T03:11:31;96514.53;;;11.18;87.19
77631;BME280;66798;47.370;8.552;2023-04-28T03:13:57;96505.19;;;11.36;86.77
77631;BME280;66798;47.370;8.552;2023-04-28T03:16:22;96503.00;;;11.48;86.22
77631;BME280;66798;47.370;8.552;2023-04-28T03:18:47;96523.50;;;11.56;86.38
77631;BME280;66798;47.370;8.552;2023-04-28T03:21:13;96530.31;;;11.62;86.42
77631;BME280;66798;47.370;8.552;2023-04-28T03:23:39;96546.97;;;11.53;87.26
77631;BME280;66798;47.370;8.552;2023-04-28T03:26:04;96538.50;;;11.61;86.58
77631;BME280;66798;47.370;8.552;2023-04-28T03:28:30;96542.22;;;11.55;86.34
77631;BME280;66798;47.370;8.552;2023-04-28T03:30:55;96520.78;;;11.32;86.35
77631;BME280;66798;47.370;8.552;2023-04-28T03:33:20;96506.66;;;11.18;86.61
77631;BME280;66798;47.370;8.552;2023-04-28T03:35:46;96504.75;;;11.23;87.70
77631;BME280;66798;47.370;8.552;2023-04-28T03:38:12;96509.25;;;11.23;88.04
77631;BME280;66798;47.370;8.552;2023-04-28T03:40:37;96509.72;;;11.30;88.09
77631;BME280;66798;47.370;8.552;2023-04-28T03:43:02;96509.13;;;11.38;88.34
77631;BME280;66798;47.370;8.552;2023-04-28T03:45:28;96510.91;;;11.48;88.06
77631;BME280;66798;47.370;8.552;2023-04-28T03:47:53;96513.28;;;11.50;88.34
77631;BME280;66798;47.370;8.552;2023-04-28T03:50:19;96517.88;;;11.29;89.43
77631;BME280;66798;47.370;8.552;2023-04-28T03:52:44;96525.81;;;11.23;89.66
77631;BME280;66798;47.370;8.552;2023-04-28T03:55:10;96524.25;;;11.17;89.74
77631;BME280;66798;47.370;8.552;2023-04-28T03:57:36;96520.06;;;11.16;90.67
77631;BME280;66798;47.370;8.552;2023-04-28T04:00:02;96523.44;;;11.22;90.43
77631;BME280;66798;47.370;8.552;2023-04-28T04:02:27;96525.13;;;11.02;90.52
77631;BME280;66798;47.370;8.552;2023-04-28T04:04:52;96530.59;;;11.16;90.22
77631;BME280;66798;47.370;8.552;2023-04-28T04:07:18;96535.13;;;11.00;89.89
77631;BME280;66798;47.370;8.552;2023-04-28T04:09:43;96538.00;;;11.09;89.63
77631;BME280;66798;47.370;8.552;2023-04-28T04:12:09;96539.84;;;11.09;89.52
77631;BME280;66798;47.370;8.552;2023-04-28T04:14:34;96536.91;;;11.20;89.25
77631;BME280;66798;47.370;8.552;2023-04-28T04:17:00;96536.69;;;11.07;89.25
77631;BME280;66798;47.370;8.552;2023-04-28T04:19:26;96550.19;;;10.90;90.54
77631;BME280;66798;47.370;8.552;2023-04-28T04:21:52;96542.31;;;10.90;90.94
77631;BME280;66798;47.370;8.552;2023-04-28T04:24:17;96543.59;;;10.97;90.92
77631;BME280;66798;47.370;8.552;2023-04-28T04:26:43;96538.88;;;10.94;91.27
77631;BME280;66798;47.370;8.552;2023-04-28T04:29:08;96531.28;;;10.82;91.96
77631;BME280;66798;47.370;8.552;2023-04-28T04:31:34;96530.47;;;10.87;91.83
77631;BME280;66798;47.370;8.552;2023-04-28T04:33:59;96537.78;;;11.00;91.64
77631;BME280;66798;47.370;8.552;2023-04-28T04:36:24;96547.31;;;10.86;92.10
77631;BME280;66798;47.370;8.552;2023-04-28T04:38:50;96546.53;;;10.86;91.74
77631;BME280;66798;47.370;8.552;2023-04-28T04:41:17;96544.91;;;10.95;91.71
77631;BME280;66798;47.370;8.552;2023-04-28T04:43:44;96545.88;;;11.14;91.05
77631;BME280;66798;47.370;8.552;2023-04-28T04:46:10;96548.59;;;10.99;91.19
77631;BME280;66798;47.370;8.552;2023-04-28T04:48:35;96544.38;;;10.98;91.33
77631;BME280;66798;47.370;8.552;2023-04-28T04:51:01;96553.56;;;11.00;91.62
77631;BME280;66798;47.370;8.552;2023-04-28T04:53:26;96560.19;;;10.93;91.91
77631;BME280;66798;47.370;8.552;2023-04-28T04:55:52;96554.88;;;10.98;91.79
77631;BME280;66798;47.370;8.552;2023-04-28T04:58:17;96555.34;;;11.10;91.47
77631;BME280;66798;47.370;8.552;2023-04-28T05:00:43;96554.81;;;11.18;91.43
77631;BME280;66798;47.370;8.552;2023-04-28T05:03:08;96546.06;;;11.28;90.87
77631;BME280;66798;47.370;8.552;2023-04-28T05:05:34;96554.44;;;11.35;90.26
77631;BME280;66798;47.370;8.552;2023-04-28T05:07:59;96553.91;;;11.38;90.46
77631;BME280;66798;47.370;8.552;2023-04-28T05:10:25;96561.41;;;11.16;90.45
77631;BME280;66798;47.370;8.552;2023-04-28T05:12:51;96562.44;;;11.15;90.55
77631;BME280;66798;47.370;8.552;2023-04-28T05:15:17;96562.94;;;11.22;90.25
77631;BME280;66798;47.370;8.552;2023-04-28T05:17:42;96554.78;;;11.23;90.28
77631;BME280;66798;47.370;8.552;2023-04-28T05:20:08;96555.00;;;11.27;90.45
77631;BME280;66798;47.370;8.552;2023-04-28T05:22:33;96565.53;;;11.27;90.06
77631;BME280;66798;47.370;8.552;2023-04-28T05:24:59;96572.41;;;11.28;89.74
77631;BME280;66798;47.370;8.552;2023-04-28T05:27:24;96566.78;;;11.45;88.96
77631;BME280;66798;47.370;8.552;2023-04-28T05:29:50;96567.66;;;11.30;90.22
77631;BME280;66798;47.370;8.552;2023-04-28T05:32:15;96572.03;;;11.45;89.11
77631;BME280;66798;47.370;8.552;2023-04-28T05:34:40;96575.53;;;11.35;89.16
77631;BME280;66798;47.370;8.552;2023-04-28T05:37:06;96581.47;;;11.56;87.94
77631;BME280;66798;47.370;8.552;2023-04-28T05:39:31;96593.00;;;11.60;87.28
77631;BME280;66798;47.370;8.552;2023-04-28T05:41:57;96585.88;;;11.66;86.42
77631;BME280;66798;47.370;8.552;2023-04-28T05:44:25;96595.06;;;11.74;86.10
77631;BME280;66798;47.370;8.552;2023-04-28T05:46:51;96599.25;;;11.75;86.30
77631;BME280;66798;47.370;8.552;2023-04-28T05:49:16;96599.25;;;11.75;85.92
77631;BME280;66798;47.370;8.552;2023-04-28T05:51:42;96587.81;;;11.50;86.81
77631;BME280;66798;47.370;8.552;2023-04-28T05:54:08;96583.19;;;11.26;87.79
77631;BME280;66798;47.370;8.552;2023-04-28T05:56:34;96589.00;;;11.23;88.43
77631;BME280;66798;47.370;8.552;2023-04-28T05:58:59;96577.72;;;11.18;88.97
77631;BME280;66798;47.370;8.552;2023-04-28T06:01:31;96584.34;;;11.05;89.40
77631;BME280;66798;47.370;8.552;2023-04-28T06:03:56;96580.41;;;11.02;89.97
77631;BME280;66798;47.370;8.552;2023-04-28T06:06:23;96587.53;;;11.02;89.62
77631;BME280;66798;47.370;8.552;2023-04-28T06:08:49;96590.69;;;10.99;89.62
77631;BME280;66798;47.370;8.552;2023-04-28T06:11:14;96595.13;;;11.03;89.52
77631;BME280;66798;47.370;8.552;2023-04-28T06:13:40;96586.97;;;11.05;88.82
77631;BME280;66798;47.370;8.552;2023-04-28T06:16:05;96580.91;;;11.10;89.06
77631;BME280;66798;47.370;8.552;2023-04-28T06:18:32;96596.72;;;11.04;89.57
77631;BME280;66798;47.370;8.552;2023-04-28T06:20:57;96602.44;;;11.22;89.23
77631;BME280;66798;47.370;8.552;2023-04-28T06:23:23;96600.88;;;11.11;89.22
77631;BME280;66798;47.370;8.552;2023-04-28T06:25:49;96601.41;;;11.13;89.38
77631;BME280;66798;47.370;8.552;2023-04-28T06:28:14;96586.72;;;11.01;89.43
77631;BME280;66798;47.370;8.552;2023-04-28T06:30:40;96586.94;;;11.10;90.12
77631;BME280;66798;47.370;8.552;2023-04-28T06:33:05;96592.47;;;11.14;90.41
77631;BME280;66798;47.370;8.552;2023-04-28T06:35:31;96578.78;;;11.12;90.12
77631;BME280;66798;47.370;8.552;2023-04-28T06:38:01;96582.69;;;11.19;90.70
77631;BME280;66798;47.370;8.552;2023-04-28T06:40:26;96568.00;;;11.08;89.57
77631;BME280;66798;47.370;8.552;2023-04-28T06:42:52;96573.44;;;11.27;89.54
77631;BME280;66798;47.370;8.552;2023-04-28T06:45:17;96591.94;;;11.12;90.71
77631;BME280;66798;47.370;8.552;2023-04-28T06:47:42;96588.78;;;11.10;90.65
77631;BME280;66798;47.370;8.552;2023-04-28T06:50:08;96583.53;;;11.10;91.03
77631;BME280;66798;47.370;8.552;2023-04-28T06:52:34;96584.34;;;11.00;90.64
77631;BME280;66798;47.370;8.552;2023-04-28T06:54:59;96587.25;;;10.98;91.22
77631;BME280;66798;47.370;8.552;2023-04-28T06:57:25;96581.16;;;11.13;91.17
77631;BME280;66798;47.370;8.552;2023-04-28T06:59:50;96585.94;;;11.01;90.79
77631;BME280;66798;47.370;8.552;2023-04-28T07:02:16;96576.44;;;11.05;91.65
77631;BME280;66798;47.370;8.552;2023-04-28T07:04:41;96560.38;;;11.12;90.94
77631;BME280;66798;47.370;8.552;2023-04-28T07:07:07;96581.91;;;11.19;91.30
77631;BME280;66798;47.370;8.552;2023-04-28T07:09:35;96573.25;;;11.18;90.67
77631;BME280;66798;47.370;8.552;2023-04-28T07:12:01;96568.72;;;11.24;90.56
77631;BME280;66798;47.370;8.552;2023-04-28T07:14:29;96581.06;;;11.29;90.25
77631;BME280;66798;47.370;8.552;2023-04-28T07:16:54;96580.34;;;11.13;89.23
77631;BME280;66798;47.370;8.552;2023-04-28T07:19:20;96564.94;;;11.40;89.50
77631;BME280;66798;47.370;8.552;2023-04-28T07:21:45;96579.50;;;11.22;89.44
77631;BME280;66798;47.370;8.552;2023-04-28T07:24:11;96575.22;;;11.42;89.06
77631;BME280;66798;47.370;8.552;2023-04-28T07:26:36;96578.66;;;11.37;88.59
77631;BME280;66798;47.370;8.552;2023-04-28T07:29:02;96577.72;;;11.18;89.02
77631;BME280;66798;47.370;8.552;2023-04-28T07:31:27;96567.59;;;11.40;89.87
77631;BME280;66798;47.370;8.552;2023-04-28T07:33:53;96578.97;;;11.31;88.14
77631;BME280;66798;47.370;8.552;2023-04-28T07:36:19;96568.44;;;11.31;89.05
77631;BME280;66798;47.370;8.552;2023-04-28T07:38:45;96567.69;;;11.20;88.88
77631;BME280;66798;47.370;8.552;2023-04-28T07:41:10;96579.50;;;11.22;89.23
77631;BME280;66798;47.370;8.552;2023-04-28T07:43:36;96586.44;;;11.13;88.97
77631;BME280;66798;47.370;8.552;2023-04-28T07:46:02;96594.81;;;11.20;89.53
77631;BME280;66798;47.370;8.552;2023-04-28T07:48:27;96600.41;;;11.09;89.68
77631;BME280;66798;47.370;8.552;2023-04-28T07:50:53;96595.47;;;10.81;90.13
77631;BME280;66798;47.370;8.552;2023-04-28T07:53:18;96598.09;;;10.81;90.85
77631;BME280;66798;47.370;8.552;2023-04-28T07:55:44;96605.19;;;10.86;90.63
77631;BME280;66798;47.370;8.552;2023-04-28T07:58:11;96593.63;;;10.82;90.54
77631;BME280;66798;47.370;8.552;2023-04-28T08:00:37;96604.63;;;10.99;90.35
77631;BME280;66798;47.370;8.552;2023-04-28T08:03:02;96593.34;;;10.89;90.39
77631;BME280;66798;47.370;8.552;2023-04-28T08:05:28;96583.88;;;10.88;90.09
77631;BME280;66798;47.370;8.552;2023-04-28T08:07:54;96591.72;;;10.98;90.57
77631;BME280;66798;47.370;8.552;2023-04-28T08:10:20;96593.88;;;10.91;90.58
77631;BME280;66798;47.370;8.552;2023-04-28T08:12:45;96608.69;;;10.61;90.97
77631;BME280;66798;47.370;8.552;2023-04-28T08:15:11;96602.34;;;10.67;91.59
77631;BME280;66798;47.370;8.552;2023-04-28T08:17:37;96617.31;;;10.77;92.09
77631;BME280;66798;47.370;8.552;2023-04-28T08:20:03;96610.97;;;10.88;91.91
77631;BME280;66798;47.370;8.552;2023-04-28T08:22:30;96632.59;;;10.80;91.19
77631;BME280;66798;47.370;8.552;2023-04-28T08:24:55;96633.13;;;10.72;91.71
77631;BME280;66798;47.370;8.552;2023-04-28T08:27:20;96636.22;;;10.99;91.52
77631;BME280;66798;47.370;8.552;2023-04-28T08:29:47;96633.47;;;11.30;90.74
77631;BME280;66798;47.370;8.552;2023-04-28T08:32:13;96628.25;;;11.15;90.75
77631;BME280;66798;47.370;8.552;2023-04-28T08:34:38;96625.16;;;11.02;91.41
77631;BME280;66798;47.370;8.552;2023-04-28T08:37:05;96629.84;;;11.11;91.17
77631;BME280;66798;47.370;8.552;2023-04-28T08:39:31;96625.63;;;11.15;90.88
77631;BME280;66798;47.370;8.552;2023-04-28T08:41:58;96637.88;;;11.45;91.68
77631;BME280;66798;47.370;8.552;2023-04-28T08:44:23;96626.84;;;11.93;89.89
77631;BME280;66798;47.370;8.552;2023-04-28T08:46:55;96632.16;;;12.22;88.81
77631;BME280;66798;47.370;8.552;2023-04-28T08:49:22;96627.53;;;12.08;86.74
77631;BME280;66798;47.370;8.552;2023-04-28T08:51:58;96635.44;;;12.08;88.13
77631;BME280;66798;47.370;8.552;2023-04-28T08:54:32;96626.22;;;11.61;89.60
77631;BME280;66798;47.370;8.552;2023-04-28T08:57:00;96637.50;;;11.67;89.13
77631;BME280;66798;47.370;8.552;2023-04-28T08:59:26;96642.78;;;11.67;89.63
77631;BME280;66798;47.370;8.552;2023-04-28T09:01:52;96637.00;;;11.60;90.94
77631;BME280;66798;47.370;8.552;2023-04-28T09:04:18;96639.09;;;11.63;90.05
77631;BME280;66798;47.370;8.552;2023-04-28T09:06:44;96630.78;;;11.40;89.49
77631;BME280;66798;47.370;8.552;2023-04-28T09:14:20;96631.88;;;11.84;90.12
77631;BME280;66798;47.370;8.552;2023-04-28T09:16:47;96626.91;;;11.77;89.42
77631;BME280;66798;47.370;8.552;2023-04-28T09:19:14;96622.50;;;11.62;89.49
77631;BME280;66798;47.370;8.552;2023-04-28T09:21:52;96633.38;;;12.00;88.67
77631;BME280;66798;47.370;8.552;2023-04-28T09:27:01;96636.75;;;11.61;90.93
77631;BME280;66798;47.370;8.552;2023-04-28T09:29:28;96647.38;;;11.41;90.95
77631;BME280;66798;47.370;8.552;2023-04-28T09:31:54;96642.78;;;11.67;90.46
77631;BME280;66798;47.370;8.552;2023-04-28T09:34:24;96643.34;;;11.59;90.56
77631;BME280;66798;47.370;8.552;2023-04-28T09:36:50;96632.16;;;11.87;89.90
77631;BME280;66798;47.370;8.552;2023-04-28T09:39:27;96623.91;;;11.99;89.02
77631;BME280;66798;47.370;8.552;2023-04-28T09:41:53;96641.91;;;11.87;90.62
77631;BME280;66798;47.370;8.552;2023-04-28T09:44:19;96651.09;;;11.95;90.02
77631;BME280;66798;47.370;8.552;2023-04-28T09:46:46;96642.97;;;11.81;90.76
77631;BME280;66798;47.370;8.552;2023-04-28T09:49:12;96643.28;;;11.69;90.40
77631;BME280;66798;47.370;8.552;2023-04-28T09:51:38;96646.34;;;11.97;89.86
77631;BME280;66798;47.370;8.552;2023-04-28T09:54:04;96661.84;;;11.43;90.74
77631;BME280;66798;47.370;8.552;2023-04-28T09:56:33;96656.56;;;11.54;91.54
77631;BME280;66798;47.370;8.552;2023-04-28T09:59:00;96660.88;;;11.24;91.86
77631;BME280;66798;47.370;8.552;2023-04-28T10:01:27;96650.38;;;11.19;92.76
77631;BME280;66798;47.370;8.552;2023-04-28T10:03:55;96646.06;;;11.38;92.55
77631;BME280;66798;47.370;8.552;2023-04-28T10:06:21;96646.44;;;11.71;92.63
77631;BME280;66798;47.370;8.552;2023-04-28T10:08:50;96645.69;;;11.60;91.99
77631;BME280;66798;47.370;8.552;2023-04-28T10:11:16;96655.19;;;11.61;91.24
77631;BME280;66798;47.370;8.552;2023-04-28T10:13:43;96647.97;;;11.87;90.67
77631;BME280;66798;47.370;8.552;2023-04-28T10:16:09;96647.59;;;12.04;89.94
77631;BME280;66798;47.370;8.552;2023-04-28T10:18:36;96655.25;;;11.46;91.61
77631;BME280;66798;47.370;8.552;2023-04-28T10:21:03;96647.13;;;11.37;92.34
77631;BME280;66798;47.370;8.552;2023-04-28T10:23:53;96636.03;;;11.45;92.54
77631;BME280;66798;47.370;8.552;2023-04-28T10:26:35;96628.22;;;11.75;91.69
77631;BME280;66798;47.370;8.552;2023-04-28T10:29:22;96638.47;;;11.81;92.01
77631;BME280;66798;47.370;8.552;2023-04-28T10:32:13;96638.59;;;12.05;91.67
77631;BME280;66798;47.370;8.552;2023-04-28T10:34:39;96635.28;;;11.95;91.20
77631;BME280;66798;47.370;8.552;2023-04-28T10:37:04;96638.81;;;11.69;91.65
77631;BME280;66798;47.370;8.552;2023-04-28T10:39:30;96635.16;;;12.10;91.58
77631;BME280;66798;47.370;8.552;2023-04-28T10:41:55;96638.94;;;11.94;91.86
77631;BME280;66798;47.370;8.552;2023-04-28T10:47:06;96637.09;;;12.63;89.91
77631;BME280;66798;47.370;8.552;2023-04-28T10:50:06;96636.16;;;12.78;89.03
77631;BME280;66798;47.370;8.552;2023-04-28T10:55:29;96635.09;;;13.70;86.05
77631;BME280;66798;47.370;8.552;2023-04-28T11:00:52;96633.22;;;13.32;87.61
77631;BME280;66798;47.370;8.552;2023-04-28T11:06:24;96635.66;;;14.23;83.65
77631;BME280;66798;47.370;8.552;2023-04-28T11:11:25;96626.53;;;13.97;85.07
77631;BME280;66798;47.370;8.552;2023-04-28T11:14:35;96624.25;;;13.71;84.84
77631;BME280;66798;47.370;8.552;2023-04-28T11:16:49;96624.75;;;13.54;84.62
77631;BME280;66798;47.370;8.552;2023-04-28T11:19:18;96623.03;;;13.21;85.99
77631;BME280;66798;47.370;8.552;2023-04-28T11:21:46;96627.56;;;13.39;86.58
77631;BME280;66798;47.370;8.552;2023-04-28T11:24:13;96630.72;;;13.17;85.87
77631;BME280;66798;47.370;8.552;2023-04-28T11:26:39;96631.56;;;13.36;85.21
77631;BME280;66798;47.370;8.552;2023-04-28T11:29:05;96626.97;;;12.99;86.52
77631;BME280;66798;47.370;8.552;2023-04-28T11:31:31;96617.91;;;13.05;86.19
77631;BME280;66798;47.370;8.552;2023-04-28T11:34:04;96620.28;;;13.31;85.81
77631;BME280;66798;47.370;8.552;2023-04-28T11:36:36;96630.78;;;13.12;86.57
77631;BME280;66798;47.370;8.552;2023-04-28T11:39:04;96634.31;;;13.69;84.91
77631;BME280;66798;47.370;8.552;2023-04-28T11:41:35;96621.88;;;13.89;84.64
77631;BME280;66798;47.370;8.552;2023-04-28T11:44:18;96631.38;;;14.41;82.74
77631;BME280;66798;47.370;8.552;2023-04-28T11:46:49;96627.31;;;14.16;83.11
77631;BME280;66798;47.370;8.552;2023-04-28T11:49:17;96623.03;;;14.34;83.82
77631;BME280;66798;47.370;8.552;2023-04-28T11:51:43;96617.66;;;14.39;82.79
77631;BME280;66798;47.370;8.552;2023-04-28T11:54:19;96619.34;;;14.35;nan
77631;BME280;66798;47.370;8.552;2023-04-28T11:56:45;96621.22;;;14.16;83.40
77631;BME280;66798;47.370;8.552;2023-04-28T11:59:12;96616.78;;;14.30;84.33
77631;BME280;66798;47.370;8.552;2023-04-28T12:01:46;96622.50;;;14.51;82.61
77631;BME280;66798;47.370;8.552;2023-04-28T12:04:12;96620.44;;;14.48;82.34
77631;BME280;66798;47.370;8.552;2023-04-28T12:06:39;96617.94;;;14.05;83.57
77631;BME280;66798;47.370;8.552;2023-04-28T12:09:18;96610.72;;;13.73;84.90
77631;BME280;66798;47.370;8.552;2023-04-28T12:11:53;96619.47;;;13.73;84.17
77631;BME280;66798;47.370;8.552;2023-04-28T12:14:19;96620.75;;;13.95;85.33
77631;BME280;66798;47.370;8.552;2023-04-28T12:16:45;96619.69;;;13.77;85.56
77631;BME280;66798;47.370;8.552;2023-04-28T12:19:12;96613.97;;;13.70;85.22
77631;BME280;66798;47.370;8.552;2023-04-28T12:21:40;96616.94;;;13.82;84.52
77631;BME280;66798;47.370;8.552;2023-04-28T12:24:16;96610.25;;;13.71;84.74
77631;BME280;66798;47.370;8.552;2023-04-28T12:26:42;96609.31;;;13.80;86.33
77631;BME280;66798;47.370;8.552;2023-04-28T12:29:08;96622.19;;;13.87;85.37
77631;BME280;66798;47.370;8.552;2023-04-28T12:31:50;96613.31;;;13.59;86.99
77631;BME280;66798;47.370;8.552;2023-04-28T12:34:17;96616.72;;;14.16;85.41
77631;BME280;66798;47.370;8.552;2023-04-28T12:36:43;96619.66;;;13.96;86.77
77631;BME280;66798;47.370;8.552;2023-04-28T12:39:13;96613.94;;;14.08;86.67
77631;BME280;66798;47.370;8.552;2023-04-28T12:41:41;96602.19;;;14.33;87.16
77631;BME280;66798;47.370;8.552;2023-04-28T12:44:06;96610.53;;;14.40;86.70
77631;BME280;66798;47.370;8.552;2023-04-28T12:46:32;96619.41;;;14.30;87.49
77631;BME280;66798;47.370;8.552;2023-04-28T12:48:57;96609.81;;;14.67;87.23
77631;BME280;66798;47.370;8.552;2023-04-28T12:51:23;96615.53;;;14.88;85.23
77631;BME280;66798;47.370;8.552;2023-04-28T12:53:51;96606.91;;;14.50;86.26
77631;BME280;66798;47.370;8.552;2023-04-28T12:56:17;96600.75;;;15.51;84.94
77631;BME280;66798;47.370;8.552;2023-04-28T12:58:42;96603.69;;;16.00;81.94
77631;BME280;66798;47.370;8.552;2023-04-28T13:01:08;96607.09;;;15.78;79.68
77631;BME280;66798;47.370;8.552;2023-04-28T13:03:33;96604.97;;;16.56;77.34
77631;BME280;66798;47.370;8.552;2023-04-28T13:05:59;96597.81;;;17.45;75.55
77631;BME280;66798;47.370;8.552;2023-04-28T13:08:24;96598.03;;;16.77;78.50
77631;BME280;66798;47.370;8.552;2023-04-28T13:10:50;96600.06;;;15.96;80.98
77631;BME280;66798;47.370;8.552;2023-04-28T13:13:15;96605.50;;;15.90;80.96
77631;BME280;66798;47.370;8.552;2023-04-28T13:15:41;96589.94;;;15.11;84.17
77631;BME280;66798;47.370;8.552;2023-04-28T13:18:06;96596.38;;;15.33;81.75
77631;BME280;66798;47.370;8.552;2023-04-28T13:20:32;96581.50;;;15.09;83.99